Time;durP1;ratioP1;P1;durP2;ratioP2;P2;SDS_P1;SDS_P2;PMS_P1;PMS_P2;Temp;Humidity;BMP_temperature;BMP_pressure;BME280_temperature;BME280_humidity;BME280_pressure;Samples;Min_cycle;Max_cycle;Signal;HPM_P1;HPM_P2
2023/06/20 00:01:20;;;;;;;18.30;6.88;;;;;;;;;;4996824;28;20062;-72
2023/06/20 00:03:46;;;;;;;12.30;6.32;;;;;;;;;;4993697;28;20026;-72
2023/06/20 00:06:11;;;;;;;15.55;6.38;;;;;;;;;;4987018;28;20038;-71
2023/06/20 00:08:37;;;;;;;9.32;5.47;;;;;;;;;;4996075;28;20113;-71
2023/06/20 00:11:03;;;;;;;10.80;6.03;;;;;;;;;;4996270;28;20117;-71
2023/06/20 00:13:29;;;;;;;11.18;6.32;;;;;;;;;;5002963;28;20386;-71
2023/06/20 00:15:57;;;;;;;8.63;5.38;;;;;;;;;;4991311;28;20399;-72
2023/06/20 00:18:24;;;;;;;9.27;6.00;;;;;;;;;;4996600;28;20025;-71
2023/06/20 00:20:53;;;;;;;10.13;5.82;;;;;;;;;;4990970;28;20041;-72
2023/06/20 00:23:20;;;;;;;12.20;6.57;;;;;;;;;;4990691;28;20025;-71
2023/06/20 00:25:46;;;;;;;9.63;5.90;;;;;;;;;;4994582;28;20129;-72
2023/06/20 00:28:16;;;;;;;11.25;5.70;;;;;;;;;;4991851;28;20110;-70
2023/06/20 00:30:43;;;;;;;12.35;6.25;;;;;;;;;;4995430;28;20392;-72
2023/06/20 00:33:08;;;;;;;11.55;6.30;;;;;;;;;;4996912;28;20504;-71
2023/06/20 00:35:34;;;;;;;9.55;6.03;;;;;;;;;;4997617;28;20100;-72
2023/06/20 00:38:01;;;;;;;7.63;5.78;;;;;;;;;;4995048;28;20041;-71
2023/06/20 00:40:27;;;;;;;10.45;6.45;;;;;;;;;;4993595;28;20113;-71
2023/06/20 00:42:53;;;;;;;9.48;5.80;;;;;;;;;;4986715;28;20079;-72
2023/06/20 00:45:35;;;;;;;8.35;5.22;;;;;;;;;;4996535;28;20042;-71
2023/06/20 00:48:03;;;;;;;7.90;5.57;;;;;;;;;;4994707;28;20034;-72
2023/06/20 00:50:30;;;;;;;9.15;6.32;;;;;;;;;;4995276;28;20033;-71
2023/06/20 00:53:01;;;;;;;9.65;6.75;;;;;;;;;;4984972;28;20030;-71
2023/06/20 00:55:28;;;;;;;12.00;6.63;;;;;;;;;;4995041;28;20410;-71
2023/06/20 00:57:59;;;;;;;12.18;6.68;;;;;;;;;;4991229;28;20113;-72
2023/06/20 01:00:26;;;;;;;9.25;6.40;;;;;;;;;;4996298;28;20080;-71
2023/06/20 01:02:57;;;;;;;8.73;6.15;;;;;;;;;;4991037;28;20029;-71
2023/06/20 01:05:27;;;;;;;11.43;6.85;;;;;;;;;;4995567;28;20030;-71
2023/06/20 01:08:33;;;;;;;20.52;7.65;;;;;;;;;;4987396;28;20030;-71
2023/06/20 01:11:08;;;;;;;14.88;7.57;;;;;;;;;;4988279;28;20057;-71
2023/06/20 01:14:12;;;;;;;15.27;7.22;;;;;;;;;;4990383;28;20038;-71
2023/06/20 01:16:57;;;;;;;9.07;6.05;;;;;;;;;;4990025;28;20100;-71
2023/06/20 01:19:43;;;;;;;11.73;6.75;;;;;;;;;;4985485;28;20022;-71
2023/06/20 01:22:14;;;;;;;12.75;6.35;;;;;;;;;;4996984;28;20121;-72
2023/06/20 01:24:47;;;;;;;8.75;6.82;;;;;;;;;;4997037;28;20040;-71
2023/06/20 01:27:18;;;;;;;11.18;6.43;;;;;;;;;;4991748;28;20081;-71
2023/06/20 01:30:00;;;;;;;8.13;6.22;;;;;;;;;;4990341;28;20189;-72
2023/06/20 01:32:28;;;;;;;10.95;6.55;;;;;;;;;;4993367;28;20041;-71
2023/06/20 01:35:11;;;;;;;10.45;6.95;;;;;;;;;;4990491;28;20101;-72
2023/06/20 01:37:41;;;;;;;9.50;6.90;;;;;;;;;;5001621;28;20044;-72
2023/06/20 01:40:09;;;;;;;10.65;6.22;;;;;;;;;;4987529;28;20051;-72
2023/06/20 01:42:37;;;;;;;12.50;6.95;;;;;;;;;;4993825;28;20026;-71
2023/06/20 01:45:05;;;;;;;10.23;7.80;;;;;;;;;;4990443;28;20408;-72
2023/06/20 01:47:34;;;;;;;9.32;7.32;;;;;;;;;;4984150;28;20038;-72
2023/06/20 01:50:03;;;;;;;7.72;6.70;;;;;;;;;;4994383;28;20061;-71
2023/06/20 01:52:30;;;;;;;12.05;7.63;;;;;;;;;;4992149;28;20034;-70
2023/06/20 01:54:57;;;;;;;10.70;6.55;;;;;;;;;;4985941;28;20128;-72
2023/06/20 01:57:25;;;;;;;8.90;6.70;;;;;;;;;;4994243;28;20034;-72
2023/06/20 01:59:52;;;;;;;9.32;6.88;;;;;;;;;;4984892;28;20081;-72
2023/06/20 02:02:19;;;;;;;11.02;7.57;;;;;;;;;;4992315;28;20031;-70
2023/06/20 02:04:47;;;;;;;11.20;7.57;;;;;;;;;;4990528;28;20030;-71
2023/06/20 02:07:15;;;;;;;11.73;7.55;;;;;;;;;;4995531;28;20419;-71
2023/06/20 02:09:44;;;;;;;11.82;8.27;;;;;;;;;;4986890;28;20125;-71
2023/06/20 02:12:11;;;;;;;10.63;7.93;;;;;;;;;;4989129;28;20018;-71
2023/06/20 02:14:38;;;;;;;12.20;8.30;;;;;;;;;;4985427;28;20034;-71
2023/06/20 02:17:05;;;;;;;13.00;8.48;;;;;;;;;;4991894;28;20038;-71
2023/06/20 02:19:31;;;;;;;14.38;9.00;;;;;;;;;;4996836;28;20113;-71
2023/06/20 02:21:58;;;;;;;11.48;7.80;;;;;;;;;;4988766;28;20043;-71
2023/06/20 02:24:30;;;;;;;12.18;7.15;;;;;;;;;;4992110;28;20033;-74
2023/06/20 02:26:56;;;;;;;12.35;7.60;;;;;;;;;;4990135;28;20084;-72
2023/06/20 02:29:25;;;;;;;12.00;7.05;;;;;;;;;;4986637;28;20509;-72
2023/06/20 02:31:57;;;;;;;11.18;6.88;;;;;;;;;;4988704;28;20057;-72
2023/06/20 02:34:25;;;;;;;10.80;6.93;;;;;;;;;;4995468;28;20550;-71
2023/06/20 02:36:53;;;;;;;9.20;7.65;;;;;;;;;;4987204;28;20512;-72
2023/06/20 02:39:19;;;;;;;18.98;8.23;;;;;;;;;;4990344;28;20488;-73
2023/06/20 02:41:46;;;;;;;13.25;7.70;;;;;;;;;;4986387;28;20117;-71
2023/06/20 02:44:11;;;;;;;14.77;7.30;;;;;;;;;;4992128;28;20110;-71
2023/06/20 02:47:01;;;;;;;10.43;7.70;;;;;;;;;;4972960;28;20061;-71
2023/06/20 02:49:30;;;;;;;15.55;8.90;;;;;;;;;;4989308;28;20026;-71
2023/06/20 02:52:18;;;;;;;16.05;7.88;;;;;;;;;;4980972;28;20023;-70
2023/06/20 02:54:57;;;;;;;17.83;8.20;;;;;;;;;;5016507;28;20119;-72
2023/06/20 02:57:25;;;;;;;11.00;8.43;;;;;;;;;;4991025;28;20088;-72
2023/06/20 02:59:58;;;;;;;11.93;7.30;;;;;;;;;;4992549;28;20373;-73
2023/06/20 03:02:30;;;;;;;11.57;7.72;;;;;;;;;;4996924;28;20052;-71
2023/06/20 03:05:00;;;;;;;12.77;6.25;;;;;;;;;;4997615;28;20603;-71
2023/06/20 03:07:33;;;;;;;13.45;7.43;;;;;;;;;;4996676;28;20022;-72
2023/06/20 03:10:06;;;;;;;8.18;6.50;;;;;;;;;;4990308;28;20074;-72
2023/06/20 03:12:32;;;;;;;9.17;6.70;;;;;;;;;;4995765;28;20535;-72
2023/06/20 03:14:57;;;;;;;13.60;7.18;;;;;;;;;;4994033;28;20283;-71
2023/06/20 03:17:25;;;;;;;17.38;8.23;;;;;;;;;;4977443;28;20080;-71
2023/06/20 03:19:51;;;;;;;12.88;7.75;;;;;;;;;;4989719;28;20030;-71
2023/06/20 03:22:20;;;;;;;20.25;7.20;;;;;;;;;;4991201;28;20096;-71
2023/06/20 03:24:47;;;;;;;15.85;7.38;;;;;;;;;;4978600;28;20443;-71
2023/06/20 03:27:15;;;;;;;16.27;8.68;;;;;;;;;;4991759;28;20038;-72
2023/06/20 03:29:42;;;;;;;20.73;9.43;;;;;;;;;;4995820;28;20567;-71
2023/06/20 03:32:08;;;;;;;23.48;9.88;;;;;;;;;;4991178;28;20058;-71
2023/06/20 03:34:36;;;;;;;21.85;9.63;;;;;;;;;;4993478;28;20105;-72
2023/06/20 03:37:03;;;;;;;26.58;9.95;;;;;;;;;;4992773;28;20137;-72
2023/06/20 03:39:29;;;;;;;23.38;9.88;;;;;;;;;;4976755;28;20030;-73
2023/06/20 03:41:55;;;;;;;18.08;9.10;;;;;;;;;;4972917;28;20101;-71
2023/06/20 03:44:22;;;;;;;17.92;9.40;;;;;;;;;;4992653;28;20497;-72
2023/06/20 03:46:47;;;;;;;16.33;9.82;;;;;;;;;;4983921;28;20064;-71
2023/06/20 03:49:13;;;;;;;18.73;10.07;;;;;;;;;;4997843;28;20117;-70
2023/06/20 03:51:39;;;;;;;12.65;7.78;;;;;;;;;;4991619;28;20118;-71
2023/06/20 03:54:05;;;;;;;14.43;8.57;;;;;;;;;;4989410;28;20085;-71
2023/06/20 03:56:32;;;;;;;14.73;8.68;;;;;;;;;;4995146;28;20038;-71
2023/06/20 03:58:57;;;;;;;17.85;8.82;;;;;;;;;;4992576;28;20353;-71
2023/06/20 04:01:26;;;;;;;19.23;8.60;;;;;;;;;;4996279;28;20077;-71
2023/06/20 04:03:54;;;;;;;17.55;8.18;;;;;;;;;;4993860;28;20033;-71
2023/06/20 04:06:30;;;;;;;14.95;8.13;;;;;;;;;;4986998;28;20118;-72
2023/06/20 04:08:58;;;;;;;20.73;8.18;;;;;;;;;;4992876;28;20027;-74
2023/06/20 04:11:24;;;;;;;17.25;8.00;;;;;;;;;;4993256;28;20121;-72
2023/06/20 04:13:50;;;;;;;17.98;9.38;;;;;;;;;;4993540;28;20491;-72
2023/06/20 04:16:15;;;;;;;11.98;8.18;;;;;;;;;;4985040;28;20110;-72
2023/06/20 04:18:43;;;;;;;16.33;8.00;;;;;;;;;;4991543;28;20042;-74
2023/06/20 04:21:08;;;;;;;22.63;9.40;;;;;;;;;;4988541;28;20100;-71
2023/06/20 04:23:34;;;;;;;17.85;8.38;;;;;;;;;;4988659;28;20572;-71
2023/06/20 04:26:01;;;;;;;16.10;7.57;;;;;;;;;;4989352;28;20030;-73
2023/06/20 04:28:27;;;;;;;10.52;7.10;;;;;;;;;;5020748;28;20121;-72
2023/06/20 04:30:59;;;;;;;14.65;7.35;;;;;;;;;;4988542;28;20026;-71
2023/06/20 04:33:25;;;;;;;18.45;7.85;;;;;;;;;;5001242;28;20072;-72
2023/06/20 04:35:57;;;;;;;12.85;7.13;;;;;;;;;;4991959;28;20053;-71
2023/06/20 04:38:26;;;;;;;11.32;6.20;;;;;;;;;;5006758;28;20042;-73
2023/06/20 04:40:51;;;;;;;18.08;6.95;;;;;;;;;;4991666;28;20172;-72
2023/06/20 04:43:17;;;;;;;13.70;6.80;;;;;;;;;;4989038;28;20091;-72
2023/06/20 04:45:43;;;;;;;12.88;6.90;;;;;;;;;;4989002;28;20025;-73
2023/06/20 04:48:09;;;;;;;9.77;6.78;;;;;;;;;;4993753;28;20498;-71
2023/06/20 04:50:36;;;;;;;14.43;6.95;;;;;;;;;;4996207;28;20022;-74
2023/06/20 04:53:03;;;;;;;15.13;6.97;;;;;;;;;;4987686;28;20527;-72
2023/06/20 04:55:29;;;;;;;13.32;7.15;;;;;;;;;;4993229;28;20041;-74
2023/06/20 04:57:56;;;;;;;10.75;6.72;;;;;;;;;;4990835;28;20532;-72
2023/06/20 05:00:22;;;;;;;17.10;8.27;;;;;;;;;;4993429;28;20033;-71
2023/06/20 05:02:48;;;;;;;11.18;6.88;;;;;;;;;;4994100;28;20049;-72
2023/06/20 05:05:14;;;;;;;12.80;6.53;;;;;;;;;;4990539;28;20117;-72
2023/06/20 05:07:41;;;;;;;14.70;6.97;;;;;;;;;;4993334;28;20030;-72
2023/06/20 05:10:08;;;;;;;10.30;7.10;;;;;;;;;;4996615;28;20570;-72
2023/06/20 05:12:34;;;;;;;13.85;7.60;;;;;;;;;;4991093;28;20109;-73
2023/06/20 05:15:01;;;;;;;13.18;8.07;;;;;;;;;;4994328;28;20117;-73
2023/06/20 05:17:26;;;;;;;12.40;7.07;;;;;;;;;;4977118;28;20042;-70
2023/06/20 05:19:52;;;;;;;10.18;7.45;;;;;;;;;;4983892;28;20061;-72
2023/06/20 05:22:18;;;;;;;12.60;8.35;;;;;;;;;;4997276;28;20117;-73
2023/06/20 05:24:44;;;;;;;13.95;7.60;;;;;;;;;;4991315;28;20019;-71
2023/06/20 05:27:10;;;;;;;15.60;7.93;;;;;;;;;;4986924;28;20049;-73
2023/06/20 05:29:36;;;;;;;16.17;7.80;;;;;;;;;;4994396;28;20034;-71
2023/06/20 05:32:02;;;;;;;16.85;8.60;;;;;;;;;;4989858;28;20042;-71
2023/06/20 05:34:27;;;;;;;19.83;9.43;;;;;;;;;;4992798;28;20526;-71
2023/06/20 05:36:53;;;;;;;12.45;7.40;;;;;;;;;;4992016;28;20121;-72
2023/06/20 05:39:20;;;;;;;12.98;6.95;;;;;;;;;;4975267;28;20026;-72
2023/06/20 05:41:48;;;;;;;13.10;8.15;;;;;;;;;;4988271;28;20452;-72
2023/06/20 05:44:13;;;;;;;13.07;7.68;;;;;;;;;;4990374;28;20102;-73
2023/06/20 05:46:39;;;;;;;14.00;7.38;;;;;;;;;;4983426;28;20034;-71
2023/06/20 05:49:09;;;;;;;10.82;7.35;;;;;;;;;;4986633;28;20038;-72
2023/06/20 05:51:35;;;;;;;12.15;6.95;;;;;;;;;;4993524;28;20034;-73
2023/06/20 05:54:01;;;;;;;11.60;7.40;;;;;;;;;;4980743;28;20102;-72
2023/06/20 05:56:27;;;;;;;9.77;7.05;;;;;;;;;;4998799;28;20104;-72
2023/06/20 05:58:53;;;;;;;9.57;6.32;;;;;;;;;;4992756;28;20054;-71
2023/06/20 06:01:19;;;;;;;7.43;5.88;;;;;;;;;;4986998;28;20034;-73
2023/06/20 06:03:47;;;;;;;10.48;6.07;;;;;;;;;;5000354;28;20057;-73
2023/06/20 06:06:13;;;;;;;8.23;5.65;;;;;;;;;;4998170;28;20161;-72
2023/06/20 06:08:40;;;;;;;11.15;5.90;;;;;;;;;;4998965;28;20109;-71
2023/06/20 06:11:07;;;;;;;8.20;5.75;;;;;;;;;;4986888;28;20026;-72
2023/06/20 06:13:33;;;;;;;7.57;5.50;;;;;;;;;;4993276;28;20052;-72
2023/06/20 06:15:59;;;;;;;6.65;5.70;;;;;;;;;;4990216;28;20018;-72
2023/06/20 06:18:25;;;;;;;9.10;5.65;;;;;;;;;;4991176;28;20038;-72
2023/06/20 06:20:51;;;;;;;14.88;5.78;;;;;;;;;;4986296;28;20044;-72
2023/06/20 06:23:17;;;;;;;9.10;5.35;;;;;;;;;;4985775;28;20085;-72
2023/06/20 06:25:44;;;;;;;9.73;5.63;;;;;;;;;;4990263;28;20058;-72
2023/06/20 06:28:11;;;;;;;11.45;5.85;;;;;;;;;;4989298;28;20405;-72
2023/06/20 06:30:36;;;;;;;12.18;6.20;;;;;;;;;;4990585;28;20054;-71
2023/06/20 06:33:03;;;;;;;14.23;6.03;;;;;;;;;;4995900;28;20041;-72
2023/06/20 06:35:30;;;;;;;18.50;6.00;;;;;;;;;;4987237;28;20027;-71
2023/06/20 06:37:58;;;;;;;10.05;5.63;;;;;;;;;;4991147;28;20023;-72
2023/06/20 06:40:24;;;;;;;9.75;5.53;;;;;;;;;;4989556;28;20186;-72
2023/06/20 06:42:49;;;;;;;10.88;6.03;;;;;;;;;;4995034;28;20057;-72
2023/06/20 06:45:16;;;;;;;10.85;5.32;;;;;;;;;;4989209;28;20069;-72
2023/06/20 06:47:42;;;;;;;8.43;5.40;;;;;;;;;;4987687;28;20038;-71
2023/06/20 06:50:08;;;;;;;11.82;6.00;;;;;;;;;;4995631;28;20641;-71
2023/06/20 06:52:34;;;;;;;7.90;5.47;;;;;;;;;;4991927;28;20114;-71
2023/06/20 06:55:00;;;;;;;12.93;5.97;;;;;;;;;;4990782;28;20113;-72
2023/06/20 06:57:26;;;;;;;10.80;5.00;;;;;;;;;;4988969;28;20138;-71
2023/06/20 06:59:52;;;;;;;9.98;5.00;;;;;;;;;;4991723;28;20109;-72
2023/06/20 07:02:18;;;;;;;8.57;5.03;;;;;;;;;;4996960;28;20042;-72
2023/06/20 07:04:44;;;;;;;7.18;4.43;;;;;;;;;;4991734;28;20026;-73
2023/06/20 07:07:10;;;;;;;8.13;4.95;;;;;;;;;;4992830;28;20039;-73
2023/06/20 07:09:36;;;;;;;7.35;4.45;;;;;;;;;;4985807;28;20477;-74
2023/06/20 07:12:05;;;;;;;9.30;4.88;;;;;;;;;;4989101;28;20038;-73
2023/06/20 07:14:32;;;;;;;10.90;5.25;;;;;;;;;;4978283;28;20408;-73
2023/06/20 07:16:57;;;;;;;5.97;4.63;;;;;;;;;;4988015;28;20378;-73
2023/06/20 07:19:23;;;;;;;9.80;4.78;;;;;;;;;;4992411;28;20097;-71
2023/06/20 07:21:49;;;;;;;9.43;4.60;;;;;;;;;;4985311;28;20097;-72
2023/06/20 07:24:15;;;;;;;8.15;4.80;;;;;;;;;;4992399;28;20492;-71
2023/06/20 07:26:40;;;;;;;7.05;4.35;;;;;;;;;;4985929;28;20038;-71
2023/06/20 07:29:06;;;;;;;7.32;4.80;;;;;;;;;;4987110;28;20110;-73
2023/06/20 07:31:32;;;;;;;10.25;5.05;;;;;;;;;;4989326;28;20023;-73
2023/06/20 07:33:58;;;;;;;5.15;4.25;;;;;;;;;;4990481;28;20299;-73
2023/06/20 07:36:24;;;;;;;8.40;4.43;;;;;;;;;;4991664;28;20034;-71
2023/06/20 07:38:49;;;;;;;6.45;3.95;;;;;;;;;;4979076;28;20122;-72
2023/06/20 07:41:15;;;;;;;5.00;4.18;;;;;;;;;;4988428;28;20168;-72
2023/06/20 07:43:41;;;;;;;6.45;4.43;;;;;;;;;;4995814;28;20403;-72
2023/06/20 07:46:08;;;;;;;5.65;4.25;;;;;;;;;;4982811;28;20600;-71
2023/06/20 07:48:34;;;;;;;6.78;3.72;;;;;;;;;;4989501;28;20109;-72
2023/06/20 07:51:00;;;;;;;7.40;3.88;;;;;;;;;;4998974;28;20122;-71
2023/06/20 07:53:26;;;;;;;7.70;3.95;;;;;;;;;;4982673;28;20121;-72
2023/06/20 07:55:55;;;;;;;5.82;4.10;;;;;;;;;;4992300;28;20133;-72
2023/06/20 07:58:21;;;;;;;10.18;4.10;;;;;;;;;;4994429;28;20030;-72
2023/06/20 08:00:47;;;;;;;6.40;3.90;;;;;;;;;;4986484;28;20042;-73
2023/06/20 08:03:13;;;;;;;8.38;4.55;;;;;;;;;;4998017;28;20027;-73
2023/06/20 08:05:38;;;;;;;6.55;4.30;;;;;;;;;;5004986;28;20081;-72
2023/06/20 08:08:04;;;;;;;7.07;3.97;;;;;;;;;;4987536;28;20180;-73
2023/06/20 08:10:30;;;;;;;4.68;3.72;;;;;;;;;;4995175;28;20070;-73
2023/06/20 08:12:56;;;;;;;6.93;3.90;;;;;;;;;;4993232;28;20473;-72
2023/06/20 08:15:22;;;;;;;8.02;3.97;;;;;;;;;;4996293;28;20046;-72
2023/06/20 08:17:47;;;;;;;4.35;3.78;;;;;;;;;;4993188;28;20054;-72
2023/06/20 08:20:13;;;;;;;5.65;3.63;;;;;;;;;;4995062;28;20038;-71
2023/06/20 08:22:39;;;;;;;15.43;12.02;;;;;;;;;;4992738;28;20031;-71
2023/06/20 08:25:05;;;;;;;10.23;5.05;;;;;;;;;;4994584;28;20562;-72
2023/06/20 08:27:32;;;;;;;8.88;3.97;;;;;;;;;;4997488;28;20104;-71
2023/06/20 08:29:58;;;;;;;8.38;4.55;;;;;;;;;;5016490;28;20030;-72
2023/06/20 08:32:23;;;;;;;7.05;3.78;;;;;;;;;;4993844;28;20025;-72
2023/06/20 08:34:49;;;;;;;6.03;4.07;;;;;;;;;;5001132;28;20041;-71
2023/06/20 08:37:17;;;;;;;10.25;3.97;;;;;;;;;;5000620;28;20035;-72
2023/06/20 08:39:44;;;;;;;7.10;4.10;;;;;;;;;;4992362;28;20121;-72
2023/06/20 08:42:12;;;;;;;7.85;4.30;;;;;;;;;;4986986;28;20046;-72
2023/06/20 08:44:38;;;;;;;5.13;3.75;;;;;;;;;;4991657;28;20040;-72
2023/06/20 08:47:04;;;;;;;8.73;3.88;;;;;;;;;;4994042;28;20116;-71
2023/06/20 08:49:30;;;;;;;6.70;3.83;;;;;;;;;;5001097;28;20124;-71
2023/06/20 08:51:59;;;;;;;8.75;3.65;;;;;;;;;;4988838;28;20101;-71
2023/06/20 08:54:25;;;;;;;5.38;3.70;;;;;;;;;;4996125;28;20145;-72
2023/06/20 08:56:51;;;;;;;4.93;3.90;;;;;;;;;;4993933;28;20509;-72
2023/06/20 08:59:24;;;;;;;5.65;3.72;;;;;;;;;;4992090;28;20114;-71
2023/06/20 09:01:49;;;;;;;;;;;;;;;;;;4997864;28;20050;-71
2023/06/20 09:04:17;;;;;;;5.47;3.30;;;;;;;;;;4991990;28;20342;-72
2023/06/20 09:06:43;;;;;;;4.03;3.38;;;;;;;;;;4995858;28;20038;-70
2023/06/20 09:09:17;;;;;;;7.05;4.13;;;;;;;;;;4990819;28;20114;-71
2023/06/20 09:11:52;;;;;;;5.40;4.15;;;;;;;;;;4994192;28;20018;-71
2023/06/20 09:14:18;;;;;;;5.75;3.47;;;;;;;;;;5001522;28;20112;-71
2023/06/20 09:16:47;;;;;;;7.35;3.90;;;;;;;;;;4988980;28;20033;-70
2023/06/20 09:19:13;;;;;;;6.82;3.88;;;;;;;;;;5011820;28;20497;-71
2023/06/20 09:21:40;;;;;;;9.13;4.28;;;;;;;;;;5001733;28;20027;-71
2023/06/20 09:24:07;;;;;;;6.05;3.60;;;;;;;;;;4994309;28;20038;-71
2023/06/20 09:26:33;;;;;;;6.10;3.90;;;;;;;;;;4992524;28;20027;-72
2023/06/20 09:29:11;;;;;;;5.03;3.63;;;;;;;;;;4986928;28;20041;-71
2023/06/20 09:31:45;;;;;;;7.35;4.10;;;;;;;;;;4996215;28;20092;-71
2023/06/20 09:34:16;;;;;;;5.32;4.20;;;;;;;;;;4988562;28;20445;-72
2023/06/20 09:36:42;;;;;;;6.70;4.05;;;;;;;;;;4990835;28;20045;-71
2023/06/20 09:39:15;;;;;;;9.93;3.97;;;;;;;;;;4991289;28;20126;-72
2023/06/20 09:41:49;;;;;;;8.80;3.65;;;;;;;;;;4991419;28;20033;-70
2023/06/20 09:44:16;;;;;;;5.18;3.75;;;;;;;;;;4989075;28;20038;-72
2023/06/20 09:46:42;;;;;;;6.30;3.90;;;;;;;;;;4990138;28;20026;-71
2023/06/20 09:49:08;;;;;;;9.77;4.07;;;;;;;;;;4999442;28;20034;-71
2023/06/20 09:51:36;;;;;;;7.10;3.42;;;;;;;;;;4995027;28;20014;-72
2023/06/20 09:54:05;;;;;;;5.65;3.60;;;;;;;;;;4995127;28;20045;-71
2023/06/20 09:56:45;;;;;;;8.20;3.92;;;;;;;;;;4993850;28;20061;-71
2023/06/20 09:59:13;;;;;;;4.03;3.40;;;;;;;;;;4988015;28;20480;-71
2023/06/20 10:01:42;;;;;;;4.32;3.63;;;;;;;;;;4985655;28;20023;-71
2023/06/20 10:04:09;;;;;;;6.47;3.50;;;;;;;;;;4989938;28;20041;-71
2023/06/20 10:06:37;;;;;;;6.90;3.78;;;;;;;;;;4991906;28;20392;-73
2023/06/20 10:09:09;;;;;;;7.82;3.65;;;;;;;;;;4990952;28;20064;-71
2023/06/20 10:11:38;;;;;;;7.10;3.60;;;;;;;;;;5001505;28;20053;-72
2023/06/20 10:14:04;;;;;;;4.25;3.53;;;;;;;;;;4993777;28;20022;-71
2023/06/20 10:16:30;;;;;;;6.20;3.85;;;;;;;;;;4993718;28;20469;-72
2023/06/20 10:18:58;;;;;;;5.20;3.65;;;;;;;;;;4995132;28;20026;-72
2023/06/20 10:22:03;;;;;;;5.80;3.80;;;;;;;;;;4989597;28;20030;-72
2023/06/20 10:24:30;;;;;;;5.68;4.18;;;;;;;;;;4984821;28;20038;-72
2023/06/20 10:27:00;;;;;;;4.93;3.72;;;;;;;;;;4986713;28;20046;-71
2023/06/20 10:29:28;;;;;;;7.28;3.47;;;;;;;;;;4991231;28;20053;-71
2023/06/20 10:32:03;;;;;;;6.30;3.85;;;;;;;;;;4991884;28;20105;-71
2023/06/20 10:34:34;;;;;;;6.05;3.17;;;;;;;;;;4990230;28;20038;-71
2023/06/20 10:37:36;;;;;;;7.00;3.55;;;;;;;;;;4994918;28;20117;-70
2023/06/20 10:40:06;;;;;;;5.07;3.40;;;;;;;;;;4986561;28;20034;-72
2023/06/20 10:42:42;;;;;;;8.23;4.00;;;;;;;;;;4995470;28;20069;-72
2023/06/20 10:45:24;;;;;;;7.97;3.85;;;;;;;;;;4996586;28;20488;-70
2023/06/20 10:47:50;;;;;;;7.70;3.40;;;;;;;;;;4989137;28;20027;-72
2023/06/20 10:50:18;;;;;;;5.45;3.90;;;;;;;;;;4987972;28;20025;-70
2023/06/20 10:52:44;;;;;;;7.60;3.88;;;;;;;;;;4998861;28;20625;-71
2023/06/20 10:55:16;;;;;;;8.90;3.88;;;;;;;;;;4990672;28;20025;-70
2023/06/20 10:57:49;;;;;;;6.28;4.00;;;;;;;;;;4989444;28;20041;-71
2023/06/20 11:00:19;;;;;;;5.35;3.95;;;;;;;;;;4992906;28;20038;-71
2023/06/20 11:02:53;;;;;;;8.18;3.90;;;;;;;;;;4993758;28;20127;-71
2023/06/20 11:05:28;;;;;;;5.40;3.47;;;;;;;;;;4994879;28;20034;-72
2023/06/20 11:08:19;;;;;;;7.68;3.45;;;;;;;;;;4988262;28;20034;-71
2023/06/20 11:10:45;;;;;;;5.68;3.70;;;;;;;;;;4992576;28;20037;-71
2023/06/20 11:13:10;;;;;;;11.27;4.13;;;;;;;;;;4998278;28;20566;-71
2023/06/20 11:15:37;;;;;;;7.85;3.47;;;;;;;;;;4992832;28;20030;-71
2023/06/20 11:18:08;;;;;;;6.07;4.22;;;;;;;;;;4990139;28;20081;-71
2023/06/20 11:20:36;;;;;;;6.13;4.07;;;;;;;;;;4995643;28;20040;-72
2023/06/20 11:23:07;;;;;;;5.85;3.67;;;;;;;;;;4996231;28;20036;-70
2023/06/20 11:25:38;;;;;;;7.20;4.13;;;;;;;;;;4995705;28;20057;-70
2023/06/20 11:28:10;;;;;;;5.50;3.78;;;;;;;;;;4994257;28;20046;-69
2023/06/20 11:30:38;;;;;;;5.00;3.50;;;;;;;;;;4997026;28;20053;-70
2023/06/20 11:33:11;;;;;;;5.57;3.55;;;;;;;;;;4980861;28;20034;-71
2023/06/20 11:35:51;;;;;;;6.32;3.53;;;;;;;;;;4993137;28;20202;-69
2023/06/20 11:38:44;;;;;;;6.03;3.83;;;;;;;;;;4986105;28;20066;-70
2023/06/20 11:41:10;;;;;;;5.55;3.60;;;;;;;;;;4991957;28;20161;-71
2023/06/20 11:43:37;;;;;;;8.30;4.07;;;;;;;;;;4989717;28;20488;-70
2023/06/20 11:46:03;;;;;;;6.15;3.47;;;;;;;;;;4990664;28;20045;-71
2023/06/20 11:48:29;;;;;;;8.25;3.90;;;;;;;;;;4995973;28;20026;-71
2023/06/20 11:50:57;;;;;;;7.93;3.60;;;;;;;;;;4994308;28;20597;-71
2023/06/20 11:53:33;;;;;;;6.38;3.38;;;;;;;;;;4996066;28;20026;-70
2023/06/20 11:56:02;;;;;;;6.65;3.65;;;;;;;;;;4985714;28;20042;-71
2023/06/20 11:58:35;;;;;;;6.22;3.92;;;;;;;;;;4994796;28;20022;-70
2023/06/20 12:01:10;;;;;;;7.32;4.43;;;;;;;;;;4995700;28;20034;-71
2023/06/20 12:03:37;;;;;;;5.22;3.70;;;;;;;;;;5000684;28;20109;-71
2023/06/20 12:06:21;;;;;;;7.13;3.78;;;;;;;;;;4995682;28;20036;-71
2023/06/20 12:08:53;;;;;;;6.82;4.07;;;;;;;;;;4989528;28;20029;-70
2023/06/20 12:11:18;;;;;;;9.57;4.07;;;;;;;;;;4992585;28;20034;-70
2023/06/20 12:13:44;;;;;;;5.50;3.50;;;;;;;;;;4992996;28;20479;-70
2023/06/20 12:16:15;;;;;;;5.50;4.60;;;;;;;;;;4998545;28;20039;-71
2023/06/20 12:18:41;;;;;;;6.75;3.88;;;;;;;;;;4995725;28;20507;-71
2023/06/20 12:21:07;;;;;;;4.45;3.85;;;;;;;;;;4994689;28;20508;-70
2023/06/20 12:23:34;;;;;;;4.97;3.88;;;;;;;;;;4999004;28;20038;-70
2023/06/20 12:26:00;;;;;;;6.32;4.72;;;;;;;;;;4990769;28;20115;-71
2023/06/20 12:28:26;;;;;;;8.65;3.47;;;;;;;;;;4998942;28;20073;-72
2023/06/20 12:30:51;;;;;;;5.25;3.53;;;;;;;;;;4990107;28;20034;-71
2023/06/20 12:33:18;;;;;;;5.75;3.20;;;;;;;;;;5000449;28;20459;-71
2023/06/20 12:35:44;;;;;;;4.47;3.42;;;;;;;;;;5000474;28;20018;-72
2023/06/20 12:38:10;;;;;;;4.90;3.38;;;;;;;;;;4988782;28;20038;-71
2023/06/20 12:40:36;;;;;;;8.70;3.55;;;;;;;;;;4993920;28;20104;-70
2023/06/20 12:43:03;;;;;;;6.38;4.07;;;;;;;;;;4984954;28;20511;-71
2023/06/20 12:45:28;;;;;;;6.18;3.53;;;;;;;;;;4995538;28;20034;-70
2023/06/20 12:47:54;;;;;;;5.95;3.72;;;;;;;;;;4994208;28;20051;-69
2023/06/20 12:50:21;;;;;;;6.18;4.05;;;;;;;;;;4996556;28;20401;-70
2023/06/20 12:52:47;;;;;;;5.25;3.45;;;;;;;;;;4993906;28;20112;-69
2023/06/20 12:55:13;;;;;;;7.18;3.85;;;;;;;;;;4987542;28;20125;-71
2023/06/20 12:57:39;;;;;;;5.35;3.50;;;;;;;;;;4995965;28;20117;-70
2023/06/20 13:00:05;;;;;;;6.57;3.90;;;;;;;;;;4990326;28;20118;-70
2023/06/20 13:02:33;;;;;;;5.35;3.83;;;;;;;;;;4994630;28;20033;-69
2023/06/20 13:04:59;;;;;;;5.22;3.53;;;;;;;;;;4994337;28;20054;-70
2023/06/20 13:07:25;;;;;;;6.30;3.50;;;;;;;;;;4991864;28;20065;-70
2023/06/20 13:09:51;;;;;;;5.28;3.72;;;;;;;;;;4989948;28;20456;-71
2023/06/20 13:12:17;;;;;;;7.13;4.40;;;;;;;;;;4994196;28;20036;-72
2023/06/20 13:14:44;;;;;;;5.45;3.92;;;;;;;;;;4990826;28;20022;-70
2023/06/20 13:17:11;;;;;;;6.88;4.00;;;;;;;;;;4989585;28;20740;-70
2023/06/20 13:19:36;;;;;;;8.32;4.00;;;;;;;;;;4996338;28;20576;-70
2023/06/20 13:22:03;;;;;;;5.30;3.67;;;;;;;;;;4995370;28;20042;-71
2023/06/20 13:24:30;;;;;;;5.88;3.72;;;;;;;;;;4999653;28;20032;-70
2023/06/20 13:26:56;;;;;;;4.28;3.38;;;;;;;;;;4994729;28;20027;-71
2023/06/20 13:29:22;;;;;;;4.18;3.28;;;;;;;;;;4994967;28;20030;-69
2023/06/20 13:31:49;;;;;;;4.13;3.40;;;;;;;;;;4992281;28;20038;-70
2023/06/20 13:34:15;;;;;;;4.28;3.55;;;;;;;;;;4990089;28;20121;-70
2023/06/20 13:36:43;;;;;;;5.18;3.53;;;;;;;;;;4993569;28;20237;-69
2023/06/20 13:39:09;;;;;;;6.68;3.47;;;;;;;;;;4990826;28;20084;-72
2023/06/20 13:41:35;;;;;;;6.68;4.07;;;;;;;;;;4994644;28;20046;-71
2023/06/20 13:44:00;;;;;;;5.25;3.63;;;;;;;;;;4989373;28;20491;-71
2023/06/20 13:46:26;;;;;;;5.63;3.35;;;;;;;;;;4984856;28;20030;-71
2023/06/20 13:48:51;;;;;;;6.85;3.78;;;;;;;;;;4992107;28;20447;-69
2023/06/20 13:51:17;;;;;;;6.00;3.72;;;;;;;;;;4998290;28;20057;-71
2023/06/20 13:53:48;;;;;;;5.22;3.95;;;;;;;;;;4991349;28;20034;-70
2023/06/20 13:56:14;;;;;;;5.05;3.60;;;;;;;;;;4987599;28;20035;-70
2023/06/20 13:58:40;;;;;;;4.22;3.40;;;;;;;;;;4995532;28;20022;-70
2023/06/20 14:01:07;;;;;;;5.25;3.50;;;;;;;;;;4990654;28;20049;-72
2023/06/20 14:03:32;;;;;;;4.55;3.78;;;;;;;;;;4992851;28;20447;-70
2023/06/20 14:06:00;;;;;;;5.22;3.72;;;;;;;;;;4994758;28;20026;-70
2023/06/20 14:08:27;;;;;;;4.88;3.67;;;;;;;;;;4986740;28;20507;-71
2023/06/20 14:10:53;;;;;;;5.60;4.10;;;;;;;;;;4995388;28;20117;-70
2023/06/20 14:13:19;;;;;;;5.60;3.88;;;;;;;;;;4989039;28;20113;-71
2023/06/20 14:15:44;;;;;;;5.78;3.65;;;;;;;;;;4986626;28;20044;-70
2023/06/20 14:18:10;;;;;;;7.22;3.80;;;;;;;;;;4991364;28;20073;-71
2023/06/20 14:20:37;;;;;;;7.00;3.88;;;;;;;;;;4992578;28;20040;-70
2023/06/20 14:23:03;;;;;;;5.53;3.45;;;;;;;;;;4995320;28;20109;-70
2023/06/20 14:25:29;;;;;;;5.72;3.45;;;;;;;;;;4992921;28;20038;-71
2023/06/20 14:27:54;;;;;;;6.75;4.10;;;;;;;;;;4982937;28;20556;-71
2023/06/20 14:30:20;;;;;;;8.35;3.55;;;;;;;;;;4995128;28;20050;-70
2023/06/20 14:32:51;;;;;;;5.35;3.72;;;;;;;;;;4989456;28;20033;-71
2023/06/20 14:35:16;;;;;;;7.60;3.70;;;;;;;;;;4988238;28;20046;-70
2023/06/20 14:37:42;;;;;;;6.80;3.63;;;;;;;;;;4992541;28;20021;-70
2023/06/20 14:40:08;;;;;;;6.10;3.83;;;;;;;;;;4987577;28;20057;-70
2023/06/20 14:42:35;;;;;;;7.93;4.25;;;;;;;;;;4991574;28;20361;-70
2023/06/20 14:45:01;;;;;;;6.00;3.85;;;;;;;;;;4991111;28;20523;-71